createdAt,value
2022-09-06T00:00:44.119Z,24.12
2022-09-06T00:03:10.819Z,24.10
2022-09-06T00:05:37.805Z,24.02
2022-09-06T00:08:05.868Z,23.96
2022-09-06T00:10:33.027Z,23.93
2022-09-06T00:13:05.236Z,23.94
2022-09-06T00:15:32.543Z,23.90
2022-09-06T00:18:00.987Z,23.94
2022-09-06T00:20:29.043Z,23.98
2022-09-06T00:23:04.624Z,23.95
2022-09-06T00:25:32.064Z,23.86
2022-09-06T00:28:00.815Z,23.80
2022-09-06T00:30:28.700Z,23.85
2022-09-06T00:32:55.528Z,23.78
2022-09-06T00:35:24.867Z,23.80
2022-09-06T00:37:52.587Z,23.61
2022-09-06T00:40:19.279Z,23.50
2022-09-06T00:42:45.972Z,23.52
2022-09-06T00:45:12.781Z,23.53
2022-09-06T00:47:40.907Z,23.51
2022-09-06T00:50:08.466Z,23.56
2022-09-06T00:52:35.471Z,23.59
2022-09-06T00:55:02.367Z,23.52
2022-09-06T00:57:30.974Z,23.54
2022-09-06T00:59:58.316Z,23.56
2022-09-06T01:02:25.036Z,23.53
2022-09-06T01:04:52.889Z,23.48
2022-09-06T01:07:34.565Z,23.52
2022-09-06T01:10:37.287Z,23.45
2022-09-06T01:13:19.313Z,23.38
2022-09-06T01:15:55.454Z,23.32
2022-09-06T01:18:59.481Z,23.31
2022-09-06T01:21:35.211Z,23.26
2022-09-06T01:24:04.777Z,23.25
2022-09-06T01:26:34.508Z,23.22
2022-09-06T01:29:01.138Z,23.21
2022-09-06T01:31:38.967Z,23.23
2022-09-06T01:34:08.732Z,23.14
2022-09-06T01:37:08.815Z,23.09
2022-09-06T01:39:37.005Z,23.06
2022-09-06T01:42:18.972Z,23.06
2022-09-06T01:44:53.113Z,23.04
2022-09-06T01:47:52.846Z,23.13
2022-09-06T01:51:10.820Z,23.10
2022-09-06T01:53:51.154Z,23.14
2022-09-06T01:56:37.535Z,23.02
2022-09-06T01:59:22.852Z,22.86
2022-09-06T02:02:16.972Z,22.76
2022-09-06T02:05:12.584Z,22.77
2022-09-06T02:07:40.392Z,22.63
2022-09-06T02:10:25.082Z,22.57
2022-09-06T02:12:54.053Z,22.38
2022-09-06T02:15:24.658Z,22.37
2022-09-06T02:17:58.806Z,22.46
2022-09-06T02:20:27.477Z,22.43
2022-09-06T02:22:56.617Z,22.48
2022-09-06T02:25:37.078Z,22.42
2022-09-06T02:28:04.020Z,22.41
2022-09-06T02:30:31.857Z,22.51
2022-09-06T02:33:01.751Z,22.61
2022-09-06T02:35:28.558Z,22.58
2022-09-06T02:37:56.487Z,22.49
2022-09-06T02:40:23.342Z,22.48
2022-09-06T02:42:50.003Z,22.27
2022-09-06T02:45:16.631Z,22.27
2022-09-06T02:47:43.266Z,22.16
2022-09-06T02:50:10.038Z,22.20
2022-09-06T02:52:36.669Z,22.27
2022-09-06T02:55:03.379Z,22.35
2022-09-06T02:57:30.016Z,22.31
2022-09-06T02:59:56.634Z,22.38
2022-09-06T03:02:23.359Z,22.23
2022-09-06T03:04:50.072Z,22.15
2022-09-06T03:07:16.740Z,22.19
2022-09-06T03:09:43.401Z,22.23
2022-09-06T03:12:10.040Z,22.07
2022-09-06T03:14:36.677Z,21.93
2022-09-06T03:17:04.306Z,21.94
2022-09-06T03:19:31.021Z,21.94
2022-09-06T03:21:57.656Z,21.91
2022-09-06T03:24:24.284Z,21.93
2022-09-06T03:26:51.978Z,21.95
2022-09-06T03:29:18.713Z,21.78
2022-09-06T03:31:45.374Z,21.86
2022-09-06T03:34:12.020Z,21.88
2022-09-06T03:36:38.779Z,21.84
2022-09-06T03:39:06.779Z,21.72
2022-09-06T03:41:33.453Z,21.50
2022-09-06T03:44:00.138Z,21.30
2022-09-06T03:46:30.552Z,21.30
2022-09-06T03:48:58.084Z,21.27
2022-09-06T03:51:25.004Z,21.37
2022-09-06T03:53:51.744Z,21.48
2022-09-06T03:56:18.371Z,21.48
2022-09-06T03:58:44.986Z,21.52
2022-09-06T04:01:12.802Z,21.47
2022-09-06T04:03:40.057Z,21.47
2022-09-06T04:06:07.301Z,21.44
2022-09-06T04:08:36.704Z,21.35
2022-09-06T04:11:04.319Z,21.35
2022-09-06T04:13:31.485Z,21.35
2022-09-06T04:15:58.352Z,21.40
2022-09-06T04:18:25.096Z,21.47
2022-09-06T04:20:53.954Z,21.35
2022-09-06T04:23:20.952Z,21.42
2022-09-06T04:25:52.778Z,21.39
2022-09-06T04:28:20.827Z,21.39
2022-09-06T04:30:55.294Z,21.34
2022-09-06T04:33:26.021Z,21.30
2022-09-06T04:35:58.376Z,21.35
2022-09-06T04:38:26.655Z,21.39
2022-09-06T04:40:55.592Z,21.41
2022-09-06T04:43:23.107Z,21.41
2022-09-06T04:45:50.180Z,21.33
2022-09-06T04:48:16.956Z,21.25
2022-09-06T04:50:43.717Z,21.19
2022-09-06T04:53:11.157Z,21.21
2022-09-06T04:55:38.237Z,21.20
2022-09-06T04:58:05.915Z,21.16
2022-09-06T05:00:34.091Z,21.22
2022-09-06T05:03:00.732Z,21.17
2022-09-06T05:05:27.578Z,20.93
2022-09-06T05:07:55.114Z,21.00
2022-09-06T05:10:22.834Z,20.94
2022-09-06T05:12:51.160Z,20.82
2022-09-06T05:15:18.731Z,20.76
2022-09-06T05:17:45.348Z,20.83
2022-09-06T05:20:12.770Z,20.81
2022-09-06T05:22:40.105Z,20.77
2022-09-06T05:25:07.857Z,20.78
2022-09-06T05:27:34.484Z,20.83
2022-09-06T05:30:01.125Z,20.84
2022-09-06T05:32:27.738Z,20.95
2022-09-06T05:34:54.399Z,21.00
2022-09-06T05:37:21.057Z,20.95
2022-09-06T05:39:47.761Z,21.06
2022-09-06T05:42:19.032Z,21.08
2022-09-06T05:44:46.047Z,21.05
2022-09-06T05:47:12.672Z,21.04
2022-09-06T05:49:39.365Z,21.02
2022-09-06T05:52:06.031Z,20.93
2022-09-06T05:54:32.690Z,20.99
2022-09-06T05:56:59.371Z,20.91
2022-09-06T05:59:26.586Z,20.96
2022-09-06T06:01:53.893Z,21.02
2022-09-06T06:04:21.804Z,21.11
2022-09-06T06:06:49.484Z,21.15
2022-09-06T06:09:17.356Z,21.11
2022-09-06T06:11:44.104Z,21.07
2022-09-06T06:14:10.740Z,21.12
2022-09-06T06:16:37.598Z,21.09
2022-09-06T06:19:04.276Z,21.07
2022-09-06T06:21:32.254Z,21.12
2022-09-06T06:24:01.175Z,21.15
2022-09-06T06:26:29.988Z,21.15
2022-09-06T06:28:58.996Z,21.18
2022-09-06T06:31:25.737Z,21.28
2022-09-06T06:33:52.592Z,21.19
2022-09-06T06:36:21.862Z,21.17
2022-09-06T06:38:49.774Z,21.21
2022-09-06T06:41:18.833Z,21.25
2022-09-06T06:43:45.740Z,21.29
2022-09-06T06:46:17.588Z,21.34
2022-09-06T06:48:45.191Z,21.34
2022-09-06T06:51:17.003Z,21.34
2022-09-06T06:53:50.152Z,21.45
2022-09-06T06:56:27.901Z,21.53
2022-09-06T06:58:57.543Z,21.63
2022-09-06T07:01:24.945Z,21.69
2022-09-06T07:03:51.826Z,21.70
2022-09-06T07:06:19.430Z,21.64
2022-09-06T07:08:47.685Z,21.61
2022-09-06T07:11:17.822Z,21.70
2022-09-06T07:13:45.467Z,21.78
2022-09-06T07:16:23.543Z,21.77
2022-09-06T07:18:54.766Z,21.81
2022-09-06T07:21:42.543Z,21.91
2022-09-06T07:24:10.243Z,21.95
2022-09-06T07:26:38.824Z,22.03
2022-09-06T07:29:06.407Z,22.04
2022-09-06T07:34:21.001Z,22.12
2022-09-06T07:36:48.579Z,22.16
2022-09-06T07:39:15.436Z,22.23
2022-09-06T07:41:43.151Z,22.27
2022-09-06T07:44:09.823Z,22.30
2022-09-06T07:46:36.514Z,22.37
2022-09-06T07:49:06.722Z,22.41
2022-09-06T07:51:33.420Z,22.40
2022-09-06T07:54:28.734Z,22.46
2022-09-06T07:56:46.693Z,22.49
2022-09-06T07:59:13.621Z,22.58
2022-09-06T08:01:40.969Z,22.70
2022-09-06T08:04:15.684Z,22.75
2022-09-06T08:09:37.669Z,22.80
2022-09-06T08:12:07.474Z,22.84
2022-09-06T08:14:34.632Z,22.88
2022-09-06T08:17:02.110Z,22.92
2022-09-06T08:19:28.746Z,23.00
2022-09-06T08:21:55.843Z,23.11
2022-09-06T08:24:25.376Z,23.21
2022-09-06T08:26:52.084Z,23.25
2022-09-06T08:29:20.080Z,23.30
2022-09-06T08:31:47.384Z,23.34
2022-09-06T08:34:15.300Z,23.39
2022-09-06T08:36:42.541Z,23.45
2022-09-06T08:39:12.511Z,23.49
2022-09-06T08:41:42.092Z,23.51
2022-09-06T08:47:16.523Z,23.62
2022-09-06T08:49:46.347Z,23.64
2022-09-06T08:52:45.400Z,23.75
2022-09-06T08:55:16.396Z,23.78
2022-09-06T08:57:52.100Z,23.82
2022-09-06T09:00:19.853Z,23.84
2022-09-06T09:02:55.318Z,23.89
2022-09-06T09:05:29.133Z,23.98
2022-09-06T09:08:08.386Z,24.01
2022-09-06T09:10:41.756Z,24.05
2022-09-06T09:13:09.806Z,24.11
2022-09-06T09:15:40.331Z,24.22
2022-09-06T09:18:07.353Z,24.31
2022-09-06T09:20:34.043Z,24.35
2022-09-06T09:23:01.909Z,24.45
2022-09-06T09:25:32.301Z,24.68
2022-09-06T09:27:59.128Z,24.75
2022-09-06T09:33:22.768Z,24.60
2022-09-06T09:35:49.818Z,24.59
2022-09-06T09:38:40.919Z,24.67
2022-09-06T09:41:07.933Z,24.73
2022-09-06T09:43:39.947Z,24.81
2022-09-06T09:46:29.896Z,24.98
2022-09-06T09:49:00.309Z,25.09
2022-09-06T09:51:28.160Z,25.23
2022-09-06T09:54:04.907Z,25.34
2022-09-06T09:56:38.893Z,25.32
2022-09-06T09:59:17.284Z,25.31
2022-09-06T10:01:43.992Z,25.49
2022-09-06T10:07:18.964Z,25.98
2022-09-06T10:09:48.208Z,26.17
2022-09-06T10:12:19.970Z,26.39
2022-09-06T10:14:49.046Z,26.70
2022-09-06T10:17:36.534Z,27.03
2022-09-06T10:20:15.124Z,27.28
2022-09-06T10:23:02.113Z,27.48
2022-09-06T10:25:46.311Z,27.75
2022-09-06T10:28:39.172Z,28.01
2022-09-06T10:31:14.844Z,28.11
2022-09-06T10:33:56.997Z,28.30
2022-09-06T10:36:38.243Z,28.42
2022-09-06T10:39:27.110Z,28.15
2022-09-06T10:41:54.585Z,28.23
2022-09-06T10:44:39.928Z,28.49
2022-09-06T10:47:14.864Z,28.69
2022-09-06T10:49:45.465Z,28.91
2022-09-06T10:52:17.589Z,29.34
2022-09-06T10:54:47.381Z,29.69
2022-09-06T11:00:14.528Z,29.97
2022-09-06T11:05:53.963Z,29.87
2022-09-06T11:08:57.718Z,29.79
2022-09-06T11:11:35.698Z,29.82
2022-09-06T11:14:07.954Z,29.90
2022-09-06T11:16:40.081Z,29.91
2022-09-06T11:19:11.327Z,30.06
2022-09-06T11:21:47.063Z,29.95
2022-09-06T11:24:29.282Z,30.23
2022-09-06T11:27:20.963Z,30.27
2022-09-06T11:29:56.394Z,30.08
2022-09-06T11:32:48.643Z,29.98
2022-09-06T11:35:41.640Z,29.91
2022-09-06T11:38:14.384Z,30.18
2022-09-06T11:40:43.358Z,29.91
2022-09-06T11:43:13.580Z,29.89
2022-09-06T11:45:51.642Z,30.05
2022-09-06T11:48:24.382Z,30.40
2022-09-06T11:50:54.074Z,30.31
2022-09-06T11:53:22.414Z,30.41
2022-09-06T11:56:01.347Z,30.30
2022-09-06T11:58:40.282Z,30.33
2022-09-06T12:01:13.265Z,30.31
2022-09-06T12:06:33.405Z,30.17
2022-09-06T12:09:00.354Z,30.20
2022-09-06T12:11:36.515Z,30.12
2022-09-06T12:14:29.215Z,30.06
2022-09-06T12:16:55.792Z,30.16
2022-09-06T12:19:44.656Z,30.13
2022-09-06T12:22:38.882Z,30.10
2022-09-06T12:25:34.544Z,30.13
2022-09-06T12:28:03.293Z,29.99
2022-09-06T12:30:44.681Z,29.82
2022-09-06T12:33:15.060Z,29.71
2022-09-06T12:35:57.673Z,29.72
2022-09-06T12:38:25.852Z,29.81
2022-09-06T12:40:56.555Z,29.91
2022-09-06T12:43:27.084Z,29.97
2022-09-06T12:45:53.795Z,30.06
2022-09-06T12:49:01.347Z,30.20
2022-09-06T12:51:28.209Z,30.27
2022-09-06T12:54:20.389Z,30.32
2022-09-06T12:56:47.028Z,30.42
2022-09-06T12:59:19.565Z,30.54
2022-09-06T13:02:12.142Z,30.54
2022-09-06T13:04:42.637Z,30.52
2022-09-06T13:07:12.325Z,30.59
2022-09-06T13:09:42.922Z,30.56
2022-09-06T13:12:29.710Z,30.38
2022-09-06T13:14:57.763Z,30.40
2022-09-06T13:17:29.814Z,30.63
2022-09-06T13:19:58.265Z,30.53
2022-09-06T13:22:46.278Z,30.59
2022-09-06T13:25:17.614Z,30.48
2022-09-06T13:27:52.704Z,30.59
2022-09-06T13:30:42.509Z,30.72
2022-09-06T13:33:24.154Z,30.55
2022-09-06T13:36:04.274Z,30.51
2022-09-06T13:38:41.423Z,30.55
2022-09-06T13:41:27.970Z,30.62
2022-09-06T13:44:01.806Z,30.70
2022-09-06T13:46:28.544Z,30.82
2022-09-06T13:48:58.629Z,30.96
2022-09-06T13:51:29.817Z,30.92
2022-09-06T13:54:15.847Z,30.91
2022-09-06T13:56:44.832Z,30.93
2022-09-06T13:59:12.158Z,30.91
2022-09-06T14:01:40.875Z,30.96
2022-09-06T14:04:07.960Z,30.98
2022-09-06T14:06:37.093Z,30.95
2022-09-06T14:09:08.438Z,30.81
2022-09-06T14:11:36.225Z,30.63
2022-09-06T14:14:02.989Z,30.73
2022-09-06T14:16:30.248Z,30.80
2022-09-06T14:18:57.047Z,30.82
2022-09-06T14:21:24.108Z,30.82
2022-09-06T14:23:51.674Z,30.88
2022-09-06T14:26:19.936Z,30.92
2022-09-06T14:28:46.867Z,31.04
2022-09-06T14:31:15.916Z,31.04
2022-09-06T14:33:43.145Z,31.17
2022-09-06T14:36:13.086Z,31.08
2022-09-06T14:38:40.981Z,31.17
2022-09-06T14:41:08.833Z,31.15
2022-09-06T14:43:36.441Z,31.19
2022-09-06T14:46:05.341Z,31.20
2022-09-06T14:48:32.779Z,31.20
2022-09-06T14:51:07.779Z,31.25
2022-09-06T14:53:40.385Z,31.34
2022-09-06T14:56:08.235Z,31.36
2022-09-06T14:58:37.587Z,31.45
2022-09-06T15:01:14.716Z,31.50
2022-09-06T15:03:43.216Z,31.34
2022-09-06T15:06:10.848Z,31.35
2022-09-06T15:08:38.122Z,31.41
2022-09-06T15:11:08.211Z,31.43
2022-09-06T15:13:41.617Z,31.56
2022-09-06T15:16:10.338Z,31.68
2022-09-06T15:18:37.144Z,31.64
2022-09-06T15:21:17.943Z,31.38
2022-09-06T15:23:44.882Z,31.35
2022-09-06T15:26:13.764Z,31.44
2022-09-06T15:28:42.233Z,31.43
2022-09-06T15:31:09.811Z,31.40
2022-09-06T15:33:37.438Z,31.55
2022-09-06T15:36:08.004Z,31.65
2022-09-06T15:38:36.655Z,31.80
2022-09-06T15:41:08.382Z,31.69
2022-09-06T15:43:47.030Z,31.62
2022-09-06T15:46:23.800Z,31.56
2022-09-06T15:48:53.677Z,31.41
2022-09-06T15:51:21.496Z,31.40
2022-09-06T15:53:48.290Z,31.37
2022-09-06T15:56:16.639Z,31.33
2022-09-06T15:58:45.811Z,31.35
2022-09-06T16:01:22.696Z,31.26
2022-09-06T16:03:55.125Z,31.13
2022-09-06T16:08:52.683Z,31.09
2022-09-06T16:11:19.740Z,31.06
2022-09-06T16:13:46.547Z,30.97
2022-09-06T16:16:15.255Z,30.93
2022-09-06T16:18:44.071Z,30.88
2022-09-06T16:21:13.728Z,30.77
2022-09-06T16:23:41.939Z,30.71
2022-09-06T16:26:09.412Z,30.79
2022-09-06T16:28:37.416Z,30.86
2022-09-06T16:31:07.309Z,30.84
2022-09-06T16:33:35.315Z,30.84
2022-09-06T16:36:03.853Z,30.79
2022-09-06T16:38:35.166Z,30.85
2022-09-06T16:41:17.327Z,30.81
2022-09-06T16:43:45.149Z,30.74
2022-09-06T16:46:12.914Z,30.65
2022-09-06T16:48:43.038Z,30.61
2022-09-06T16:51:17.764Z,30.61
2022-09-06T16:53:48.424Z,30.62
2022-09-06T16:56:17.374Z,30.64
2022-09-06T16:58:49.872Z,30.73
2022-09-06T17:01:16.685Z,30.51
2022-09-06T17:03:43.728Z,30.43
2022-09-06T17:06:10.352Z,30.34
2022-09-06T17:08:37.106Z,30.23
2022-09-06T17:11:05.777Z,30.12
2022-09-06T17:13:33.137Z,29.96
2022-09-06T17:16:22.102Z,29.87
2022-09-06T17:18:49.569Z,29.71
2022-09-06T17:21:16.481Z,29.61
2022-09-06T17:23:43.650Z,29.54
2022-09-06T17:26:10.648Z,29.48
2022-09-06T17:28:38.482Z,29.41
2022-09-06T17:31:05.859Z,29.38
2022-09-06T17:33:33.344Z,29.31
2022-09-06T17:36:08.660Z,29.21
2022-09-06T17:38:35.406Z,29.11
2022-09-06T17:41:02.511Z,29.06
2022-09-06T17:43:29.477Z,29.00
2022-09-06T17:45:56.333Z,28.96
2022-09-06T17:48:25.301Z,28.91
2022-09-06T17:50:53.577Z,28.91
2022-09-06T17:53:20.268Z,28.89
2022-09-06T17:55:47.023Z,28.83
2022-09-06T17:58:13.791Z,28.84
2022-09-06T18:00:42.353Z,28.84
2022-09-06T18:03:09.099Z,28.79
2022-09-06T18:05:43.028Z,28.76
2022-09-06T18:08:09.765Z,28.73
2022-09-06T18:10:37.926Z,28.60
2022-09-06T18:13:05.340Z,28.63
2022-09-06T18:15:33.128Z,28.57
2022-09-06T18:17:59.908Z,28.50
2022-09-06T18:20:29.761Z,28.42
2022-09-06T18:22:56.482Z,28.35
2022-09-06T18:25:23.229Z,28.31
2022-09-06T18:27:49.888Z,28.30
2022-09-06T18:30:16.772Z,28.22
2022-09-06T18:32:45.504Z,28.18
2022-09-06T18:35:12.350Z,28.12
2022-09-06T18:37:39.018Z,28.10
2022-09-06T18:40:06.674Z,28.12
2022-09-06T18:42:33.698Z,28.09
2022-09-06T18:45:00.460Z,28.02
2022-09-06T18:47:27.208Z,27.98
2022-09-06T18:49:54.140Z,27.91
2022-09-06T18:52:21.093Z,27.84
2022-09-06T18:54:49.130Z,27.79
2022-09-06T18:57:17.319Z,27.78
2022-09-06T18:59:44.731Z,27.77
2022-09-06T19:02:11.567Z,27.73
2022-09-06T19:04:38.469Z,27.69
2022-09-06T19:07:05.174Z,27.64
2022-09-06T19:09:31.885Z,27.66
2022-09-06T19:11:58.602Z,27.59
2022-09-06T19:14:25.413Z,27.57
2022-09-06T19:16:54.247Z,27.58
2022-09-06T19:19:22.070Z,27.59
2022-09-06T19:21:48.745Z,27.56
2022-09-06T19:24:16.399Z,27.59
2022-09-06T19:26:44.259Z,27.59
2022-09-06T19:29:16.007Z,27.61
2022-09-06T19:31:43.766Z,27.59
2022-09-06T19:34:12.290Z,27.49
2022-09-06T19:36:39.526Z,27.46
2022-09-06T19:39:08.825Z,27.48
2022-09-06T19:41:43.116Z,27.51
2022-09-06T19:44:11.132Z,27.43
2022-09-06T19:46:40.094Z,27.40
2022-09-06T19:49:08.911Z,27.36
2022-09-06T19:51:36.931Z,27.31
2022-09-06T19:54:04.223Z,27.26
2022-09-06T19:56:33.825Z,27.27
2022-09-06T19:59:03.418Z,27.29
2022-09-06T20:01:32.698Z,27.20
2022-09-06T20:04:00.739Z,27.17
2022-09-06T20:06:27.488Z,27.16
2022-09-06T20:08:56.509Z,27.17
2022-09-06T20:11:25.907Z,27.10
2022-09-06T20:13:53.036Z,27.07
2022-09-06T20:16:20.941Z,26.97
2022-09-06T20:18:48.593Z,27.02
2022-09-06T20:21:17.989Z,26.95
2022-09-06T20:23:51.585Z,26.97
2022-09-06T20:26:19.038Z,26.89
2022-09-06T20:28:47.367Z,26.81
2022-09-06T20:31:20.744Z,26.75
2022-09-06T20:33:49.823Z,26.73
2022-09-06T20:36:17.488Z,26.66
2022-09-06T20:38:45.207Z,26.57
2022-09-06T20:41:20.619Z,26.33
2022-09-06T20:43:57.721Z,26.30
2022-09-06T20:46:27.137Z,26.33
2022-09-06T20:48:59.847Z,26.37
2022-09-06T20:51:26.602Z,26.31
2022-09-06T20:53:58.181Z,26.37
2022-09-06T20:56:29.693Z,26.39
2022-09-06T20:58:59.599Z,26.37
2022-09-06T21:01:29.614Z,26.32
2022-09-06T21:03:58.554Z,26.31
2022-09-06T21:06:27.296Z,26.28
2022-09-06T21:08:57.836Z,26.27
2022-09-06T21:11:24.879Z,26.16
2022-09-06T21:13:53.515Z,26.09
2022-09-06T21:16:24.594Z,25.85
2022-09-06T21:19:02.080Z,25.78
2022-09-06T21:21:30.680Z,25.71
2022-09-06T21:23:57.394Z,25.53
2022-09-06T21:26:24.118Z,25.50
2022-09-06T21:28:50.851Z,25.55
2022-09-06T21:31:24.423Z,25.54
2022-09-06T21:34:03.681Z,25.56
2022-09-06T21:36:33.074Z,25.53
2022-09-06T21:39:03.041Z,25.58
2022-09-06T21:41:30.971Z,25.61
2022-09-06T21:43:59.726Z,25.68
2022-09-06T21:46:33.433Z,25.71
2022-09-06T21:49:05.385Z,25.70
2022-09-06T21:51:32.717Z,25.67
2022-09-06T21:54:03.233Z,25.63
2022-09-06T21:56:30.268Z,25.64
2022-09-06T21:58:58.339Z,25.63
2022-09-06T22:01:26.802Z,25.70
2022-09-06T22:03:53.745Z,25.77
2022-09-06T22:06:24.888Z,25.68
2022-09-06T22:08:52.367Z,25.59
2022-09-06T22:11:24.666Z,25.61
2022-09-06T22:13:52.143Z,25.54
2022-09-06T22:16:21.872Z,25.50
2022-09-06T22:18:49.420Z,25.54
2022-09-06T22:21:21.238Z,25.55
2022-09-06T22:23:52.275Z,25.51
2022-09-06T22:26:19.648Z,25.52
2022-09-06T22:28:46.993Z,25.39
2022-09-06T22:31:14.034Z,25.36
2022-09-06T22:33:40.851Z,25.31
2022-09-06T22:36:07.734Z,25.27
2022-09-06T22:38:35.024Z,25.24
2022-09-06T22:41:01.869Z,25.15
2022-09-06T22:43:28.524Z,25.13
2022-09-06T22:46:11.108Z,25.18
2022-09-06T22:48:37.957Z,25.25
2022-09-06T22:51:06.201Z,25.32
2022-09-06T22:53:33.464Z,25.33
2022-09-06T22:56:01.452Z,25.35
2022-09-06T22:58:28.311Z,25.35
2022-09-06T23:00:55.672Z,25.33
2022-09-06T23:03:22.428Z,25.28
2022-09-06T23:05:49.389Z,25.30
2022-09-06T23:08:16.333Z,25.24
2022-09-06T23:10:44.016Z,25.17
2022-09-06T23:13:11.356Z,25.15
2022-09-06T23:15:40.887Z,25.23
2022-09-06T23:18:08.551Z,25.16
2022-09-06T23:20:37.146Z,25.13
2022-09-06T23:23:07.451Z,25.12
2022-09-06T23:25:38.894Z,24.98
2022-09-06T23:28:05.958Z,24.78
2022-09-06T23:30:32.637Z,24.43
2022-09-06T23:32:59.290Z,23.78
2022-09-06T23:35:25.944Z,22.75
2022-09-06T23:37:53.547Z,22.42
2022-09-06T23:40:20.344Z,22.06
2022-09-06T23:42:47.523Z,21.63
2022-09-06T23:45:14.454Z,21.44
2022-09-06T23:47:41.738Z,21.24
2022-09-06T23:50:09.133Z,21.05
2022-09-06T23:52:36.044Z,21.02
2022-09-06T23:55:03.202Z,20.93
2022-09-06T23:57:30.160Z,20.73
2022-09-06T23:59:56.784Z,20.73
